Time;durP1;ratioP1;P1;durP2;ratioP2;P2;SDS_P1;SDS_P2;PMS_P1;PMS_P2;Temp;Humidity;BMP_temperature;BMP_pressure;BME280_temperature;BME280_humidity;BME280_pressure;Samples;Min_cycle;Max_cycle;Signal;HPM_P1;HPM_P2
2021/11/02 00:00:09;;;;;;;76.37;43.40;;;;;;;8.36;100.00;97405.69;5029467;28;20032;-59
2021/11/02 00:02:34;;;;;;;80.60;43.50;;;;;;;8.40;100.00;97394.50;5029194;28;20133;-60
2021/11/02 00:05:01;;;;;;;75.67;42.97;;;;;;;8.41;100.00;97378.28;5032881;28;20108;-60
2021/11/02 00:07:26;;;;;;;83.40;44.20;;;;;;;8.24;100.00;97373.66;5026002;28;20033;-60
2021/11/02 00:09:54;;;;;;;77.80;43.70;;;;;;;8.32;100.00;97373.47;5027793;28;20048;-57
2021/11/02 00:12:20;;;;;;;75.37;41.90;;;;;;;8.40;100.00;97375.81;5020333;28;20041;-59
2021/11/02 00:14:46;;;;;;;80.60;42.37;;;;;;;8.45;100.00;97363.72;5025896;28;20035;-59
2021/11/02 00:17:20;;;;;;;82.77;43.17;;;;;;;8.33;100.00;97356.44;5028565;28;20096;-59
2021/11/02 00:19:48;;;;;;;76.85;41.13;;;;;;;8.26;100.00;97359.16;5022888;28;20570;-59
2021/11/02 00:22:17;;;;;;;76.27;43.03;;;;;;;8.23;100.00;97353.31;5027309;28;20037;-59
2021/11/02 00:27:26;;;;;;;86.80;45.10;;;;;;;8.13;100.00;97349.34;5033486;28;20530;-60
2021/11/02 00:29:53;;;;;;;91.93;44.63;;;;;;;8.16;100.00;97336.50;5030091;28;20035;-60
2021/11/02 00:32:19;;;;;;;83.93;46.00;;;;;;;8.24;100.00;97339.63;5031890;28;20079;-59
2021/11/02 00:34:45;;;;;;;82.80;44.77;;;;;;;8.24;100.00;97343.03;5030548;28;20471;-60
2021/11/02 00:37:10;;;;;;;82.90;42.23;;;;;;;8.24;100.00;97330.28;5027847;28;20053;-59
2021/11/02 00:39:36;;;;;;;87.73;44.73;;;;;;;8.15;100.00;97322.88;5025362;28;20072;-59
2021/11/02 00:42:01;;;;;;;101.97;50.10;;;;;;;8.04;100.00;97319.00;5040812;28;20074;-57
2021/11/02 00:44:27;;;;;;;94.17;46.70;;;;;;;7.94;100.00;97323.53;5028232;28;20030;-59
2021/11/02 00:46:55;;;;;;;93.23;47.90;;;;;;;7.97;100.00;97314.97;5027280;28;20026;-60
2021/11/02 00:49:22;;;;;;;95.80;47.93;;;;;;;7.93;100.00;97304.03;5027421;28;20087;-58
2021/11/02 00:51:49;;;;;;;105.20;49.93;;;;;;;7.86;100.00;97307.59;5033254;28;20039;-60
2021/11/02 00:54:15;;;;;;;101.13;49.40;;;;;;;7.81;100.00;97301.81;5025794;28;20028;-59
2021/11/02 00:56:42;;;;;;;94.13;47.50;;;;;;;7.93;100.00;97308.28;5029419;28;20498;-57
2021/11/02 00:59:08;;;;;;;108.67;51.53;;;;;;;7.86;100.00;97299.97;5029901;28;20029;-58
2021/11/02 01:01:34;;;;;;;106.57;51.63;;;;;;;7.90;100.00;97301.53;5038504;28;20475;-56
2021/11/02 01:04:04;;;;;;;97.63;48.17;;;;;;;7.92;100.00;97304.06;5034138;28;20386;-58
2021/11/02 01:06:34;;;;;;;86.10;46.83;;;;;;;8.04;100.00;97306.22;5027441;28;20159;-58
2021/11/02 01:09:00;;;;;;;103.50;49.57;;;;;;;7.97;100.00;97289.44;5025199;28;20340;-58
2021/11/02 01:11:26;;;;;;;106.67;51.57;;;;;;;7.94;100.00;97294.63;5030254;28;20029;-58
2021/11/02 01:13:53;;;;;;;95.53;49.13;;;;;;;8.02;100.00;97306.28;5032139;28;20388;-59
2021/11/02 01:16:21;;;;;;;94.80;46.27;;;;;;;7.99;100.00;97305.53;5025524;28;20040;-56
2021/11/02 01:18:47;;;;;;;88.10;45.90;;;;;;;7.99;100.00;97295.31;5029296;28;20055;-60
2021/11/02 01:21:13;;;;;;;99.97;51.00;;;;;;;7.96;100.00;97290.31;5045720;28;20040;-60
2021/11/02 01:23:39;;;;;;;103.83;52.50;;;;;;;7.96;100.00;97283.50;5031130;28;20040;-61
2021/11/02 01:26:04;;;;;;;107.10;48.37;;;;;;;7.99;100.00;97285.94;5023582;28;20356;-61
2021/11/02 01:28:30;;;;;;;98.97;47.20;;;;;;;7.92;100.00;97279.38;5025000;28;20498;-57
2021/11/02 01:30:56;;;;;;;108.97;49.33;;;;;;;7.96;100.00;97288.59;5026049;28;20380;-59
2021/11/02 01:33:21;;;;;;;96.53;49.80;;;;;;;7.93;100.00;97287.88;5026930;28;20100;-58
2021/11/02 01:35:47;;;;;;;93.53;44.53;;;;;;;7.94;100.00;97299.72;5026596;28;20514;-60
2021/11/02 01:38:14;;;;;;;96.57;45.37;;;;;;;7.93;100.00;97286.16;5024528;28;20033;-58
2021/11/02 01:40:40;;;;;;;93.17;46.57;;;;;;;7.95;100.00;97288.63;5028462;28;20033;-58
2021/11/02 01:43:05;;;;;;;100.63;46.87;;;;;;;7.90;100.00;97275.19;5023881;28;20049;-58
2021/11/02 01:45:31;;;;;;;67.43;34.90;;;;;;;7.92;100.00;97265.78;5024134;28;20523;-58
2021/11/02 01:47:57;;;;;;;66.20;35.07;;;;;;;7.98;100.00;97268.97;5026562;28;20065;-60
2021/11/02 01:50:23;;;;;;;71.03;37.97;;;;;;;7.98;100.00;97260.47;5024431;28;20026;-60
2021/11/02 01:52:48;;;;;;;61.40;32.30;;;;;;;7.99;100.00;97249.38;5027507;28;20029;-59
2021/11/02 01:55:16;;;;;;;50.87;26.80;;;;;;;7.92;100.00;97253.84;5024751;28;20029;-60
2021/11/02 01:57:43;;;;;;;54.10;28.63;;;;;;;7.95;100.00;97246.09;5026638;28;20065;-58
2021/11/02 02:00:15;;;;;;;59.03;31.63;;;;;;;7.97;100.00;97243.50;5026067;28;20515;-57
2021/11/02 02:02:45;;;;;;;55.23;28.00;;;;;;;7.91;100.00;97238.59;5024766;28;20136;-58
2021/11/02 02:05:16;;;;;;;33.17;19.30;;;;;;;7.81;100.00;97225.25;5023542;28;20104;-60
2021/11/02 02:08:01;;;;;;;24.80;13.67;;;;;;;7.84;100.00;97224.34;5024004;28;20087;-62
2021/11/02 02:10:57;;;;;;;8.10;5.32;;;;;;;7.70;100.00;97224.78;5024319;28;20035;-60
2021/11/02 02:13:29;;;;;;;2.33;1.55;;;;;;;7.56;100.00;97227.72;5023047;28;20041;-60
2021/11/02 02:16:19;;;;;;;0.83;0.73;;;;;;;7.53;100.00;97232.09;5026003;28;20084;-61
2021/11/02 02:19:10;;;;;;;1.00;0.53;;;;;;;7.50;100.00;97243.22;5022825;28;20048;-60
2021/11/02 02:21:55;;;;;;;0.67;0.50;;;;;;;7.45;100.00;97241.69;5025554;28;20029;-60
2021/11/02 02:24:49;;;;;;;0.47;0.47;;;;;;;7.31;100.00;97247.16;5025444;28;20133;-59
2021/11/02 02:27:40;;;;;;;1.30;0.50;;;;;;;7.17;100.00;97239.91;5023492;28;20033;-59
2021/11/02 02:30:10;;;;;;;0.43;0.43;;;;;;;7.15;100.00;97256.13;5023941;28;20152;-58
2021/11/02 02:32:38;;;;;;;0.67;0.57;;;;;;;7.03;100.00;97261.56;5023080;28;20382;-58
2021/11/02 02:35:08;;;;;;;0.43;0.43;;;;;;;6.94;100.00;97267.72;5025890;28;20034;-60
2021/11/02 02:37:36;;;;;;;0.33;0.33;;;;;;;6.89;100.00;97270.41;5020395;28;20029;-60
2021/11/02 02:40:03;;;;;;;0.40;0.40;;;;;;;6.86;100.00;97275.59;5016983;28;20030;-58
2021/11/02 02:42:30;;;;;;;0.67;0.37;;;;;;;6.70;100.00;97278.56;4970878;28;1341368;-60
2021/11/02 02:44:57;;;;;;;2.43;0.70;;;;;;;6.73;100.00;97286.97;5021965;28;20050;-61
2021/11/02 02:47:25;;;;;;;3.00;0.50;;;;;;;6.62;100.00;97285.56;5021902;28;20044;-59
2021/11/02 02:49:53;;;;;;;0.50;0.50;;;;;;;6.56;100.00;97285.69;5027458;28;20041;-57
2021/11/02 02:52:19;;;;;;;0.33;0.33;;;;;;;6.41;100.00;97281.81;5022085;28;20585;-60
2021/11/02 02:54:46;;;;;;;3.13;0.40;;;;;;;6.25;100.00;97285.59;5030211;28;20095;-59
2021/11/02 02:57:13;;;;;;;2.00;0.50;;;;;;;6.19;100.00;97286.59;5027158;28;20029;-60
2021/11/02 02:59:40;;;;;;;0.27;0.27;;;;;;;6.13;100.00;97274.00;5026140;28;20479;-58
2021/11/02 03:02:07;;;;;;;2.10;0.40;;;;;;;6.10;100.00;97276.63;5032420;28;20037;-59
2021/11/02 03:04:34;;;;;;;0.50;0.30;;;;;;;6.05;100.00;97273.34;5024426;28;20116;-58
2021/11/02 03:07:03;;;;;;;1.60;0.40;;;;;;;5.95;100.00;97272.72;5023543;28;20049;-59
2021/11/02 03:09:29;;;;;;;0.60;0.40;;;;;;;5.92;100.00;97279.56;5018706;28;20041;-61
2021/11/02 03:11:56;;;;;;;0.43;0.43;;;;;;;5.92;100.00;97294.84;5025332;28;20356;-61
2021/11/02 03:14:31;;;;;;;1.03;0.40;;;;;;;5.84;100.00;97297.53;5029796;28;20052;-59
2021/11/02 03:17:06;;;;;;;0.22;0.22;;;;;;;5.78;100.00;97300.19;5029021;28;20056;-61
2021/11/02 03:20:40;;;;;;;;;;;;;;;5.94;100.00;97301.56;5021669;28;20483;-61
2021/11/02 03:50:14;;;;;;;;;;;;;;;5.63;100.00;97295.44;5041184;28;20088;-59
2021/11/02 03:55:31;;;;;;;1.40;0.30;;;;;;;5.60;100.00;97308.19;5030716;28;20414;-59
2021/11/02 03:58:02;;;;;;;0.37;0.37;;;;;;;5.57;100.00;97308.25;5032473;28;20443;-58
2021/11/02 04:23:29;;;;;;;0.40;0.40;;;;;;;5.46;100.00;97333.91;5030818;28;20044;-60
2021/11/02 04:29:11;;;;;;;0.65;0.40;;;;;;;5.42;100.00;97324.69;4992035;28;20039;-59
2021/11/02 05:47:39;;;;;;;0.40;0.40;;;;;;;5.28;100.00;97302.94;4965675;28;20041;-59
2021/11/02 06:09:48;;;;;;;1.30;0.47;;;;;;;5.41;100.00;97312.81;5029172;28;20029;-61
2021/11/02 06:29:13;;;;;;;0.50;0.50;;;;;;;5.39;100.00;97326.41;4982625;28;20093;-61
2021/11/02 06:31:41;;;;;;;0.40;0.40;;;;;;;5.43;100.00;97318.69;4985400;28;20034;-61
2021/11/02 07:16:00;;;;;;;1.30;1.13;;;;;;;5.78;100.00;97361.22;4989511;28;20102;-62
2021/11/02 07:18:29;;;;;;;1.10;1.00;;;;;;;5.84;100.00;97362.81;5025557;28;20526;-61
2021/11/02 07:21:07;;;;;;;0.93;0.63;;;;;;;5.86;100.00;97363.59;5043456;28;20417;-58
2021/11/02 08:45:11;;;;;;;2.77;1.10;;;;;;;7.27;100.00;97370.47;5013936;28;20330;-57
2021/11/02 08:47:40;;;;;;;0.70;0.70;;;;;;;7.27;100.00;97368.78;5011917;28;20573;-60
2021/11/02 08:50:12;;;;;;;1.00;0.87;;;;;;;7.28;100.00;97364.50;5010691;28;20401;-59
2021/11/02 08:52:38;;;;;;;0.50;0.50;;;;;;;7.36;100.00;97365.16;5011914;28;20053;-59
2021/11/02 08:55:07;;;;;;;0.60;0.60;;;;;;;7.35;100.00;97356.66;5014267;28;20996;-60
2021/11/02 08:57:33;;;;;;;0.90;0.73;;;;;;;7.50;100.00;97355.41;5011976;28;20511;-59
2021/11/02 08:59:59;;;;;;;0.53;0.53;;;;;;;7.56;100.00;97367.16;5009630;28;20069;-60
2021/11/02 09:02:34;;;;;;;0.80;0.80;;;;;;;7.68;100.00;97360.00;5009825;28;20061;-56
2021/11/02 09:05:18;;;;;;;0.80;0.80;;;;;;;7.77;100.00;97369.94;5015287;28;20087;-59
2021/11/02 09:07:45;;;;;;;1.60;0.90;;;;;;;7.74;100.00;97381.94;5011622;28;20042;-59
2021/11/02 09:10:14;;;;;;;0.83;0.83;;;;;;;7.58;100.00;97388.34;5010069;28;20131;-59
2021/11/02 09:12:46;;;;;;;0.83;0.83;;;;;;;7.65;100.00;97392.41;5018897;28;20049;-56
2021/11/02 09:15:15;;;;;;;0.83;0.83;;;;;;;7.60;100.00;97386.59;5029841;28;20395;-59
2021/11/02 09:17:47;;;;;;;0.80;0.80;;;;;;;7.75;100.00;97381.91;5028069;28;20061;-58
2021/11/02 09:20:15;;;;;;;0.97;0.73;;;;;;;7.78;100.00;97391.19;5025903;28;20068;-57
2021/11/02 09:22:42;;;;;;;0.80;0.80;;;;;;;7.75;100.00;97396.38;5028383;28;20080;-59
2021/11/02 09:25:09;;;;;;;1.13;0.87;;;;;;;7.62;100.00;97388.22;5028758;28;20052;-60
2021/11/02 09:27:36;;;;;;;0.73;0.73;;;;;;;7.70;100.00;97391.41;5024712;28;20034;-60
2021/11/02 09:30:04;;;;;;;0.60;0.60;;;;;;;7.69;100.00;97391.44;5024397;28;20380;-62
2021/11/02 09:32:30;;;;;;;1.03;0.93;;;;;;;7.80;100.00;97389.44;5028053;28;20112;-62
2021/11/02 09:34:55;;;;;;;0.60;0.60;;;;;;;7.70;100.00;97382.91;5028610;28;20429;-59
2021/11/02 09:37:36;;;;;;;0.97;0.70;;;;;;;7.91;100.00;97392.53;5029930;28;20048;-55
2021/11/02 09:40:28;;;;;;;0.80;0.80;;;;;;;7.95;100.00;97389.00;5027515;28;20035;-56
2021/11/02 09:43:10;;;;;;;0.60;0.60;;;;;;;8.01;100.00;97403.31;5003115;28;20058;-58
2021/11/02 09:46:01;;;;;;;0.70;0.70;;;;;;;8.05;100.00;97390.44;5027719;28;20034;-61
2021/11/02 09:49:04;;;;;;;0.90;0.60;;;;;;;8.17;100.00;97384.13;5023518;28;20606;-58
2021/11/02 09:52:10;;;;;;;1.77;1.60;;;;;;;8.16;100.00;97390.94;5023722;28;20574;-60
2021/11/02 09:55:21;;;;;;;0.70;0.70;;;;;;;8.13;100.00;97396.13;4968313;28;20469;-58
2021/11/02 09:58:13;;;;;;;0.57;0.57;;;;;;;8.15;100.00;97389.25;4963885;28;20627;-61
2021/11/02 10:01:01;;;;;;;1.67;0.80;;;;;;;8.15;100.00;97381.59;4964914;28;20048;-59
2021/11/02 10:03:55;;;;;;;0.53;0.53;;;;;;;8.22;100.00;97372.06;4970733;28;20051;-60
2021/11/02 10:06:53;;;;;;;0.70;0.70;;;;;;;8.37;100.00;97379.28;4967450;28;20161;-58
2021/11/02 10:09:38;;;;;;;0.65;0.60;;;;;;;8.47;100.00;97370.47;4967118;28;20043;-59
2021/11/02 10:12:24;;;;;;;0.60;0.60;;;;;;;8.55;100.00;97377.88;4973041;28;20177;-58
2021/11/02 10:15:27;;;;;;;1.40;0.70;;;;;;;8.55;100.00;97377.88;4974254;28;20326;-59
2021/11/02 10:18:18;;;;;;;1.10;0.80;;;;;;;8.70;100.00;97372.28;4964998;28;20117;-59
2021/11/02 10:21:15;;;;;;;0.60;0.60;;;;;;;8.85;100.00;97371.81;4971508;28;20038;-59
2021/11/02 10:24:18;;;;;;;0.70;0.70;;;;;;;8.85;100.00;97382.03;4971489;28;20565;-61
2021/11/02 10:27:15;;;;;;;1.70;0.70;;;;;;;8.98;100.00;97375.63;4943616;28;20208;-55
2021/11/02 10:29:54;;;;;;;1.10;0.70;;;;;;;8.92;100.00;97378.38;5024433;28;20056;-58
2021/11/02 10:32:24;;;;;;;0.73;0.70;;;;;;;8.87;100.00;97385.34;5026211;28;20029;-60
2021/11/02 10:35:02;;;;;;;0.70;0.70;;;;;;;8.92;100.00;97386.03;5041586;28;20086;-60
2021/11/02 10:37:49;;;;;;;0.97;0.97;;;;;;;8.90;100.00;97387.84;5030661;28;20049;-60
2021/11/02 10:40:27;;;;;;;0.60;0.60;;;;;;;8.70;100.00;97385.88;5029634;28;20037;-61
2021/11/02 10:43:04;;;;;;;0.70;0.70;;;;;;;8.84;100.00;97384.63;5028702;28;20052;-61
2021/11/02 10:45:33;;;;;;;0.77;0.77;;;;;;;8.69;100.00;97380.84;5026439;28;20029;-61
2021/11/02 10:47:59;;;;;;;0.80;0.80;;;;;;;8.65;100.00;97381.84;5027002;28;20033;-60
2021/11/02 10:50:29;;;;;;;1.80;0.80;;;;;;;8.67;100.00;97385.16;5026723;28;20373;-60
2021/11/02 10:52:58;;;;;;;0.87;0.80;;;;;;;8.62;100.00;97387.00;5026267;28;20487;-59
2021/11/02 10:55:51;;;;;;;1.57;0.60;;;;;;;8.64;100.00;97391.22;5031776;28;20383;-62
2021/11/02 10:58:29;;;;;;;0.70;0.60;;;;;;;8.68;100.00;97387.69;5031153;28;20028;-61
2021/11/02 11:00:55;;;;;;;0.80;0.80;;;;;;;8.70;100.00;97388.44;5028160;28;20544;-64
2021/11/02 11:03:29;;;;;;;0.90;0.90;;;;;;;8.84;100.00;97390.56;5026961;28;20037;-61
2021/11/02 11:06:04;;;;;;;0.60;0.60;;;;;;;8.80;100.00;97380.50;5024875;28;20461;-60
2021/11/02 11:08:32;;;;;;;0.80;0.80;;;;;;;8.85;100.00;97384.59;5027472;28;20032;-61
2021/11/02 11:11:08;;;;;;;1.63;1.53;;;;;;;8.95;100.00;97382.56;5027109;28;20493;-60
2021/11/02 11:13:37;;;;;;;2.30;2.03;;;;;;;8.93;100.00;97382.63;5027389;28;20037;-60
2021/11/02 11:16:09;;;;;;;1.25;1.15;;;;;;;9.03;100.00;97384.00;5027927;28;20502;-60
2021/11/02 11:19:13;;;;;;;1.80;0.98;;;;;;;9.05;100.00;97374.53;5033087;28;20026;-61
2021/11/02 11:21:39;;;;;;;6.43;2.50;;;;;;;9.18;100.00;97373.25;5033454;28;20479;-61
2021/11/02 11:24:32;;;;;;;2.17;1.20;;;;;;;9.34;100.00;97367.59;5033382;28;20536;-59
2021/11/02 11:27:04;;;;;;;1.00;1.00;;;;;;;9.34;100.00;97358.19;5033485;28;20055;-62
2021/11/02 11:29:32;;;;;;;0.68;0.68;;;;;;;9.20;100.00;97360.41;5027732;28;20467;-60
2021/11/02 11:31:59;;;;;;;0.68;0.68;;;;;;;9.35;100.00;97364.16;5025414;28;20040;-59
2021/11/02 11:34:31;;;;;;;0.95;0.90;;;;;;;9.50;100.00;97361.09;5033586;28;20124;-59
2021/11/02 11:37:01;;;;;;;0.70;0.70;;;;;;;9.43;100.00;97369.84;5033297;28;20064;-59
2021/11/02 11:39:31;;;;;;;0.55;0.55;;;;;;;9.61;100.00;97364.09;5030237;28;20025;-61
2021/11/02 11:41:58;;;;;;;0.63;0.63;;;;;;;9.66;100.00;97369.88;5029020;28;20555;-60
2021/11/02 11:44:25;;;;;;;0.70;0.70;;;;;;;9.73;100.00;97366.22;5026629;28;20087;-61
2021/11/02 11:47:07;;;;;;;0.60;0.60;;;;;;;9.68;100.00;97354.47;5029896;28;20038;-60
2021/11/02 11:49:33;;;;;;;0.73;0.73;;;;;;;9.63;100.00;97354.66;5023187;28;20034;-59
2021/11/02 11:52:04;;;;;;;0.77;0.77;;;;;;;9.75;100.00;97363.59;5025122;28;20037;-61
2021/11/02 11:54:47;;;;;;;1.58;1.20;;;;;;;9.88;100.00;97360.56;5028412;28;20037;-59
2021/11/02 11:57:27;;;;;;;0.80;0.80;;;;;;;10.12;100.00;97363.06;5031359;28;20048;-60
2021/11/02 11:59:58;;;;;;;0.70;0.70;;;;;;;9.93;100.00;97361.19;5026482;28;20026;-60
2021/11/02 12:02:31;;;;;;;2.65;2.55;;;;;;;10.14;100.00;97357.03;5031403;28;20137;-61
2021/11/02 12:05:01;;;;;;;0.80;0.80;;;;;;;10.20;100.00;97353.41;5036661;28;20107;-60
2021/11/02 12:07:45;;;;;;;1.10;1.10;;;;;;;10.48;100.00;97347.16;5028076;28;20105;-62
2021/11/02 12:10:11;;;;;;;0.80;0.80;;;;;;;10.31;100.00;97343.59;5025907;28;20722;-63
2021/11/02 12:12:41;;;;;;;2.33;0.85;;;;;;;10.44;100.00;97349.91;5032104;28;20029;-63
2021/11/02 12:15:17;;;;;;;0.80;0.80;;;;;;;10.35;100.00;97352.84;5025466;28;20526;-63
2021/11/02 12:17:44;;;;;;;1.00;1.00;;;;;;;10.47;100.00;97350.63;5028769;28;20032;-63
2021/11/02 12:20:12;;;;;;;0.73;0.73;;;;;;;10.56;100.00;97358.84;5028824;28;20029;-61
2021/11/02 12:22:47;;;;;;;0.60;0.60;;;;;;;10.63;100.00;97361.09;5024001;28;20421;-62
2021/11/02 12:25:18;;;;;;;1.10;0.60;;;;;;;10.48;100.00;97370.22;5026985;28;20040;-60
2021/11/02 12:27:44;;;;;;;1.33;0.90;;;;;;;10.63;100.00;97363.69;5030662;28;20523;-63
2021/11/02 12:30:13;;;;;;;0.80;0.80;;;;;;;10.78;100.00;97370.75;5030655;28;20120;-63
2021/11/02 12:32:50;;;;;;;0.60;0.60;;;;;;;10.72;100.00;97362.47;5039533;28;20034;-63
2021/11/02 12:35:52;;;;;;;0.65;0.65;;;;;;;10.92;100.00;97362.50;5027688;28;20061;-62
2021/11/02 12:38:31;;;;;;;0.70;0.70;;;;;;;11.17;100.00;97364.88;5033500;28;20136;-64
2021/11/02 12:40:56;;;;;;;0.60;0.60;;;;;;;11.30;100.00;97358.34;5028270;28;20025;-63
2021/11/02 12:43:27;;;;;;;0.60;0.60;;;;;;;11.31;100.00;97362.59;5026420;28;20438;-61
2021/11/02 12:45:55;;;;;;;0.70;0.70;;;;;;;11.19;100.00;97368.25;5023528;28;20033;-63
2021/11/02 12:48:22;;;;;;;0.68;0.68;;;;;;;11.32;100.00;97359.97;5027395;28;20068;-63
2021/11/02 12:50:50;;;;;;;0.80;0.80;;;;;;;11.07;100.00;97367.03;5028914;28;20048;-62
2021/11/02 12:53:16;;;;;;;0.80;0.80;;;;;;;10.95;100.00;97363.22;5030301;28;20036;-61
2021/11/02 12:55:45;;;;;;;1.77;1.02;;;;;;;10.99;100.00;97363.91;5025554;28;20105;-62
2021/11/02 12:58:10;;;;;;;0.88;0.88;;;;;;;10.85;100.00;97367.06;5029621;28;20065;-60
2021/11/02 13:00:42;;;;;;;1.42;0.80;;;;;;;10.92;100.00;97359.94;5037327;28;20056;-57
2021/11/02 13:03:09;;;;;;;0.93;0.93;;;;;;;10.96;100.00;97364.03;5022913;28;20041;-59
2021/11/02 13:05:37;;;;;;;0.80;0.80;;;;;;;10.92;100.00;97367.63;5053094;28;20041;-59
2021/11/02 13:08:13;;;;;;;1.48;0.70;;;;;;;10.91;100.00;97371.09;5032384;28;20033;-58
2021/11/02 13:10:40;;;;;;;1.23;0.90;;;;;;;10.90;100.00;97377.13;5025098;28;20441;-58
2021/11/02 13:13:16;;;;;;;1.90;1.00;;;;;;;10.62;100.00;97376.53;5027916;28;20044;-58
2021/11/02 13:15:53;;;;;;;0.85;0.80;;;;;;;10.62;100.00;97379.94;5028122;28;20508;-59
2021/11/02 13:18:35;;;;;;;1.95;1.40;;;;;;;10.59;100.00;97369.81;5027155;28;20048;-62
2021/11/02 13:21:19;;;;;;;1.88;1.48;;;;;;;10.61;100.00;97364.63;5028728;28;20033;-61
2021/11/02 13:23:51;;;;;;;1.20;1.20;;;;;;;10.53;100.00;97370.03;5023788;28;20104;-58
2021/11/02 13:26:21;;;;;;;2.40;1.40;;;;;;;10.61;100.00;97367.22;5023025;28;20095;-60
2021/11/02 13:28:48;;;;;;;1.10;1.10;;;;;;;10.71;100.00;97360.81;5029058;28;20029;-60
2021/11/02 13:31:34;;;;;;;2.13;1.20;;;;;;;10.82;100.00;97364.59;5025471;28;20044;-61
2021/11/02 13:34:00;;;;;;;;;;;;;;;10.77;100.00;97361.41;5030147;28;20029;-60
2021/11/02 13:36:25;;;;;;;2.15;1.30;;;;;;;10.69;100.00;97358.31;5029220;28;19913;-60
2021/11/02 13:39:04;;;;;;;2.53;1.80;;;;;;;10.55;100.00;97378.53;5029879;28;20037;-58
2021/11/02 13:41:32;;;;;;;2.78;2.55;;;;;;;10.34;100.00;97364.81;5026572;28;20050;-62
2021/11/02 13:44:05;;;;;;;3.13;1.27;;;;;;;10.26;100.00;97384.78;5028076;28;20034;-61
2021/11/02 13:46:37;;;;;;;1.42;1.38;;;;;;;10.27;100.00;97388.97;5027552;28;20030;-61
2021/11/02 13:49:04;;;;;;;2.00;1.13;;;;;;;10.32;100.00;97389.63;5031443;28;20106;-58
2021/11/02 13:51:30;;;;;;;1.90;1.50;;;;;;;10.27;100.00;97398.41;5023359;28;20025;-61
2021/11/02 13:53:56;;;;;;;4.85;1.23;;;;;;;10.24;100.00;97404.47;5026853;28;20027;-57
2021/11/02 13:56:25;;;;;;;3.15;1.42;;;;;;;10.29;100.00;97402.56;5025322;28;20026;-60
2021/11/02 13:58:51;;;;;;;3.30;1.00;;;;;;;10.25;100.00;97398.47;5025572;28;20037;-60
2021/11/02 14:01:23;;;;;;;4.22;2.40;;;;;;;10.38;100.00;97406.50;5022383;28;20429;-57
2021/11/02 14:03:48;;;;;;;4.82;1.48;;;;;;;10.36;100.00;97403.16;5028444;28;20034;-61
2021/11/02 14:06:18;;;;;;;2.80;1.40;;;;;;;10.41;100.00;97411.50;5029297;28;20036;-63
2021/11/02 14:08:45;;;;;;;1.77;1.33;;;;;;;10.44;100.00;97403.69;5027040;28;20029;-59
2021/11/02 14:11:21;;;;;;;1.40;1.13;;;;;;;10.36;100.00;97400.59;5024049;28;20592;-61
2021/11/02 14:13:49;;;;;;;3.63;1.40;;;;;;;10.34;100.00;97399.84;5020593;28;20030;-59
2021/11/02 14:16:27;;;;;;;1.95;1.20;;;;;;;10.33;100.00;97403.28;5024776;28;20032;-59
2021/11/02 14:18:52;;;;;;;0.98;0.98;;;;;;;10.17;100.00;97400.47;5026224;28;20084;-63
2021/11/02 14:21:48;;;;;;;1.77;1.58;;;;;;;10.29;100.00;97404.28;5023308;28;20057;-60
2021/11/02 14:24:15;;;;;;;1.50;1.38;;;;;;;10.09;100.00;97410.97;5026273;28;20376;-61
2021/11/02 14:26:50;;;;;;;1.13;1.10;;;;;;;10.10;100.00;97402.38;5029413;28;20372;-63
2021/11/02 14:29:16;;;;;;;1.48;1.38;;;;;;;9.99;100.00;97416.47;5023137;28;20025;-62
2021/11/02 14:31:45;;;;;;;1.98;1.30;;;;;;;10.05;100.00;97411.97;5025405;28;20470;-64
2021/11/02 14:34:26;;;;;;;1.40;1.30;;;;;;;10.01;100.00;97415.50;5027528;28;20028;-61
2021/11/02 14:37:11;;;;;;;3.20;1.65;;;;;;;9.98;100.00;97407.94;5028494;28;20037;-63
2021/11/02 14:40:01;;;;;;;1.60;1.50;;;;;;;9.89;100.00;97412.56;5027469;28;20140;-63
2021/11/02 14:42:47;;;;;;;3.03;1.40;;;;;;;9.84;100.00;97415.31;5021657;28;20469;-61
2021/11/02 14:45:15;;;;;;;1.58;1.35;;;;;;;9.75;100.00;97420.75;5025123;28;20034;-59
2021/11/02 14:47:41;;;;;;;3.95;1.13;;;;;;;9.75;100.00;97420.75;5025379;28;20364;-62
2021/11/02 14:50:32;;;;;;;2.33;1.38;;;;;;;9.70;100.00;97425.19;5022616;28;20025;-61
2021/11/02 14:53:15;;;;;;;4.90;2.10;;;;;;;9.64;100.00;97415.16;5012914;28;20049;-59
2021/11/02 14:55:51;;;;;;;6.13;1.50;;;;;;;9.55;100.00;97429.09;5025093;28;20030;-62
2021/11/02 14:58:38;;;;;;;2.10;1.50;;;;;;;9.57;100.00;97436.72;5028827;28;20082;-62
2021/11/02 15:01:13;;;;;;;2.50;1.58;;;;;;;9.54;100.00;97441.97;5026676;28;20064;-60
2021/11/02 15:03:49;;;;;;;4.18;1.60;;;;;;;9.44;100.00;97440.59;5029811;28;20043;-59
2021/11/02 15:06:16;;;;;;;2.25;2.05;;;;;;;9.37;100.00;97447.66;5026686;28;20025;-60
2021/11/02 15:08:44;;;;;;;3.33;2.92;;;;;;;9.34;100.00;97449.44;5021829;28;20039;-59
2021/11/02 15:11:16;;;;;;;2.38;1.60;;;;;;;9.38;100.00;97451.84;5024055;28;20103;-59
2021/11/02 15:14:18;;;;;;;3.42;1.67;;;;;;;9.29;100.00;97451.34;5025883;28;20040;-59
2021/11/02 15:16:45;;;;;;;2.47;1.63;;;;;;;9.28;100.00;97457.34;5024625;28;20028;-60
2021/11/02 15:19:11;;;;;;;2.25;1.75;;;;;;;9.23;100.00;97460.03;5025296;28;20116;-60
2021/11/02 15:21:41;;;;;;;2.53;1.47;;;;;;;9.17;100.00;97452.53;5023635;28;20503;-60
2021/11/02 15:24:37;;;;;;;1.58;1.42;;;;;;;9.26;100.00;97459.09;5025379;28;20030;-59
2021/11/02 15:27:08;;;;;;;2.00;1.52;;;;;;;9.26;100.00;97456.53;5030590;28;20028;-56
2021/11/02 15:29:38;;;;;;;2.47;1.65;;;;;;;9.08;100.00;97463.09;5026831;28;20034;-60
2021/11/02 15:32:06;;;;;;;2.05;1.50;;;;;;;9.04;100.00;97471.72;5032210;28;20414;-60
2021/11/02 15:34:53;;;;;;;1.93;1.50;;;;;;;9.02;100.00;97468.41;5026194;28;20459;-58
2021/11/02 15:37:21;;;;;;;1.85;1.75;;;;;;;8.94;100.00;97481.41;5023926;28;20040;-62
2021/11/02 15:39:59;;;;;;;1.90;1.53;;;;;;;8.90;100.00;97474.72;5029696;28;20024;-59
2021/11/02 15:42:34;;;;;;;2.42;1.50;;;;;;;8.81;100.00;97476.72;5028839;28;20484;-59
2021/11/02 15:45:03;;;;;;;4.38;2.15;;;;;;;8.72;100.00;97480.38;5030616;28;20037;-58
2021/11/02 15:47:31;;;;;;;3.17;1.60;;;;;;;8.70;100.00;97487.25;5029368;28;20088;-59
2021/11/02 15:50:08;;;;;;;2.00;1.90;;;;;;;8.76;100.00;97493.91;5029553;28;20029;-57
2021/11/02 15:52:35;;;;;;;2.30;2.10;;;;;;;8.68;100.00;97491.59;5029683;28;20056;-59
2021/11/02 15:55:11;;;;;;;3.33;2.30;;;;;;;8.74;100.00;97499.09;5033392;28;20446;-57
2021/11/02 15:57:46;;;;;;;2.03;1.80;;;;;;;8.80;100.00;97495.47;5033850;28;20048;-58
2021/11/02 16:00:14;;;;;;;2.17;1.60;;;;;;;8.76;100.00;97497.31;5031852;28;20036;-60
2021/11/02 16:02:41;;;;;;;3.33;1.70;;;;;;;8.74;100.00;97498.25;5033110;28;20042;-62
2021/11/02 16:05:11;;;;;;;2.85;2.63;;;;;;;8.68;100.00;97504.38;5029489;28;20123;-58
2021/11/02 16:07:37;;;;;;;3.97;1.93;;;;;;;8.63;100.00;97512.16;5026091;28;20091;-60
2021/11/02 16:10:07;;;;;;;2.67;1.80;;;;;;;8.57;100.00;97507.22;5029246;28;20037;-56
2021/11/02 16:12:40;;;;;;;4.10;2.37;;;;;;;8.58;100.00;97511.44;5027155;28;20069;-59
2021/11/02 16:15:18;;;;;;;3.43;3.13;;;;;;;8.48;100.00;97511.78;5026927;28;20493;-56
2021/11/02 16:17:56;;;;;;;3.97;3.47;;;;;;;8.38;100.00;97513.75;5027145;28;20315;-61
2021/11/02 16:20:33;;;;;;;4.13;3.33;;;;;;;8.42;100.00;97519.59;5026985;28;20335;-60
2021/11/02 16:23:00;;;;;;;3.93;3.20;;;;;;;8.25;100.00;97512.38;5024908;28;20041;-59
2021/11/02 16:25:28;;;;;;;4.67;3.17;;;;;;;8.21;100.00;97519.28;5028472;28;20086;-61
2021/11/02 16:28:02;;;;;;;4.63;3.83;;;;;;;8.13;100.00;97526.31;5026888;28;20037;-61
2021/11/02 16:30:40;;;;;;;2.65;2.42;;;;;;;8.07;100.00;97531.59;5028391;28;20112;-61
2021/11/02 16:33:07;;;;;;;3.17;2.90;;;;;;;8.06;100.00;97532.44;5025643;28;20029;-60
2021/11/02 16:35:41;;;;;;;7.10;4.50;;;;;;;8.10;100.00;97546.00;5024958;28;20123;-59
2021/11/02 16:38:33;;;;;;;6.03;3.50;;;;;;;8.00;100.00;97542.84;5029635;28;20065;-62
2021/11/02 16:41:20;;;;;;;5.80;3.53;;;;;;;8.00;100.00;97554.75;5027849;28;20073;-60
2021/11/02 16:44:00;;;;;;;3.10;2.80;;;;;;;7.96;100.00;97556.56;5018852;28;20467;-59
2021/11/02 16:46:35;;;;;;;4.60;3.47;;;;;;;7.88;100.00;97550.81;5027971;28;20033;-59
2021/11/02 16:49:05;;;;;;;9.93;4.33;;;;;;;7.86;100.00;97559.38;5029350;28;20075;-58
2021/11/02 16:51:51;;;;;;;7.60;5.43;;;;;;;7.77;100.00;97555.34;5026050;28;20294;-60